sensor_id;sensor_type;location;lat;lon;timestamp;pressure;altitude;pressure_sealevel;temperature;humidity
82245;BME280;71849;50.096;14.458;2023-10-13T00:01:23;99515.91;;;20.43;64.26
82245;BME280;71849;50.096;14.458;2023-10-13T00:03:50;99516.84;;;20.34;64.31
82245;BME280;71849;50.096;14.458;2023-10-13T00:06:17;99517.63;;;20.39;64.21
82245;BME280;71849;50.096;14.458;2023-10-13T00:08:44;99520.41;;;20.63;62.60
82245;BME280;71849;50.096;14.458;2023-10-13T00:11:13;99506.09;;;20.56;63.28
82245;BME280;71849;50.096;14.458;2023-10-13T00:13:39;99512.28;;;20.48;63.35
82245;BME280;71849;50.096;14.458;2023-10-13T00:16:18;99514.03;;;20.39;63.59
82245;BME280;71849;50.096;14.458;2023-10-13T00:18:47;99505.41;;;20.45;63.52
82245;BME280;71849;50.096;14.458;2023-10-13T00:21:14;99511.69;;;20.51;63.67
82245;BME280;71849;50.096;14.458;2023-10-13T00:23:45;99505.09;;;20.47;63.93
82245;BME280;71849;50.096;14.458;2023-10-13T00:26:21;99505.19;;;20.37;63.28
82245;BME280;71849;50.096;14.458;2023-10-13T00:29:00;99503.03;;;20.34;63.67
82245;BME280;71849;50.096;14.458;2023-10-13T00:31:41;99503.22;;;20.13;63.99
82245;BME280;71849;50.096;14.458;2023-10-13T00:34:08;99497.09;;;20.16;64.06
82245;BME280;71849;50.096;14.458;2023-10-13T00:36:41;99494.75;;;20.05;64.69
82245;BME280;71849;50.096;14.458;2023-10-13T00:39:25;99503.31;;;20.03;64.22
82245;BME280;71849;50.096;14.458;2023-10-13T00:41:54;99501.78;;;20.21;63.20
82245;BME280;71849;50.096;14.458;2023-10-13T00:44:31;99507.97;;;20.08;63.95
82245;BME280;71849;50.096;14.458;2023-10-13T00:47:08;99517.22;;;20.27;63.33
82245;BME280;71849;50.096;14.458;2023-10-13T00:49:35;99510.44;;;20.09;63.23
82245;BME280;71849;50.096;14.458;2023-10-13T00:52:06;99509.00;;;20.17;63.60
82245;BME280;71849;50.096;14.458;2023-10-13T00:54:32;99518.63;;;20.19;63.31
82245;BME280;71849;50.096;14.458;2023-10-13T00:57:01;99530.84;;;19.51;65.85
82245;BME280;71849;50.096;14.458;2023-10-13T00:59:50;99529.56;;;20.06;63.46
82245;BME280;71849;50.096;14.458;2023-10-13T01:02:16;99520.91;;;20.12;63.50
82245;BME280;71849;50.096;14.458;2023-10-13T01:05:07;99523.75;;;19.40;65.94
82245;BME280;71849;50.096;14.458;2023-10-13T01:07:39;99528.16;;;20.08;63.09
82245;BME280;71849;50.096;14.458;2023-10-13T01:10:09;99533.63;;;19.85;64.36
82245;BME280;71849;50.096;14.458;2023-10-13T01:12:38;99537.06;;;19.23;67.11
82245;BME280;71849;50.096;14.458;2023-10-13T01:15:04;99544.81;;;19.70;65.16
82245;BME280;71849;50.096;14.458;2023-10-13T01:17:32;99540.94;;;19.27;67.19
82245;BME280;71849;50.096;14.458;2023-10-13T01:19:59;99547.75;;;19.78;64.90
82245;BME280;71849;50.096;14.458;2023-10-13T01:22:24;99533.03;;;20.16;63.47
82245;BME280;71849;50.096;14.458;2023-10-13T01:24:50;99538.19;;;19.99;64.50
82245;BME280;71849;50.096;14.458;2023-10-13T01:27:16;99537.28;;;19.75;66.17
82245;BME280;71849;50.096;14.458;2023-10-13T01:29:50;99534.84;;;19.69;66.17
82245;BME280;71849;50.096;14.458;2023-10-13T01:32:31;99533.25;;;19.96;64.59
82245;BME280;71849;50.096;14.458;2023-10-13T01:34:56;99531.06;;;19.93;64.96
82245;BME280;71849;50.096;14.458;2023-10-13T01:37:27;99537.78;;;19.43;66.87
82245;BME280;71849;50.096;14.458;2023-10-13T01:39:54;99538.44;;;20.03;64.19
82245;BME280;71849;50.096;14.458;2023-10-13T01:42:19;99542.47;;;19.48;66.85
82245;BME280;71849;50.096;14.458;2023-10-13T01:44:47;99549.13;;;19.37;67.48
82245;BME280;71849;50.096;14.458;2023-10-13T01:47:13;99540.69;;;19.62;66.24
82245;BME280;71849;50.096;14.458;2023-10-13T01:49:38;99545.53;;;18.92;69.38
82245;BME280;71849;50.096;14.458;2023-10-13T01:52:10;99546.41;;;19.76;65.49
82245;BME280;71849;50.096;14.458;2023-10-13T01:54:50;99547.91;;;19.14;68.17
82245;BME280;71849;50.096;14.458;2023-10-13T01:57:16;99546.09;;;19.33;67.89
82245;BME280;71849;50.096;14.458;2023-10-13T01:59:49;99551.34;;;19.45;67.13
82245;BME280;71849;50.096;14.458;2023-10-13T02:02:15;99552.44;;;18.85;70.03
82245;BME280;71849;50.096;14.458;2023-10-13T02:04:45;99544.19;;;19.34;66.82
82245;BME280;71849;50.096;14.458;2023-10-13T02:07:25;99556.81;;;19.84;66.61
82245;BME280;71849;50.096;14.458;2023-10-13T02:09:55;99549.09;;;19.47;67.89
82245;BME280;71849;50.096;14.458;2023-10-13T02:12:21;99548.53;;;19.50;66.90
82245;BME280;71849;50.096;14.458;2023-10-13T02:14:53;99549.38;;;19.84;65.71
82245;BME280;71849;50.096;14.458;2023-10-13T02:17:19;99551.63;;;19.33;66.95
82245;BME280;71849;50.096;14.458;2023-10-13T02:19:47;99550.31;;;19.70;65.33
82245;BME280;71849;50.096;14.458;2023-10-13T02:22:13;99548.34;;;19.75;65.63
82245;BME280;71849;50.096;14.458;2023-10-13T02:24:55;99540.13;;;19.65;65.31
82245;BME280;71849;50.096;14.458;2023-10-13T02:27:26;99548.56;;;19.45;66.27
82245;BME280;71849;50.096;14.458;2023-10-13T02:29:52;99549.03;;;19.91;63.79
82245;BME280;71849;50.096;14.458;2023-10-13T02:32:24;99545.56;;;20.09;63.59
82245;BME280;71849;50.096;14.458;2023-10-13T02:34:49;99561.13;;;19.95;63.64
82245;BME280;71849;50.096;14.458;2023-10-13T02:37:14;99557.06;;;20.16;63.29
82245;BME280;71849;50.096;14.458;2023-10-13T02:39:41;99566.34;;;19.68;64.00
82245;BME280;71849;50.096;14.458;2023-10-13T02:42:07;99559.84;;;20.16;63.31
82245;BME280;71849;50.096;14.458;2023-10-13T02:44:36;99551.22;;;20.23;63.21
82245;BME280;71849;50.096;14.458;2023-10-13T02:47:03;99557.66;;;19.84;64.63
82245;BME280;71849;50.096;14.458;2023-10-13T02:49:38;99549.97;;;19.42;65.56
82245;BME280;71849;50.096;14.458;2023-10-13T02:52:08;99543.22;;;19.92;63.51
82245;BME280;71849;50.096;14.458;2023-10-13T02:54:35;99541.50;;;20.25;62.64
82245;BME280;71849;50.096;14.458;2023-10-13T02:57:06;99534.19;;;20.10;63.21
82245;BME280;71849;50.096;14.458;2023-10-13T02:59:32;99528.50;;;20.02;63.53
82245;BME280;71849;50.096;14.458;2023-10-13T03:02:21;99531.56;;;20.29;62.90
82245;BME280;71849;50.096;14.458;2023-10-13T03:04:51;99520.91;;;20.12;62.17
82245;BME280;71849;50.096;14.458;2023-10-13T03:07:17;99515.75;;;20.06;62.20
82245;BME280;71849;50.096;14.458;2023-10-13T03:09:51;99511.06;;;20.01;62.73
82245;BME280;71849;50.096;14.458;2023-10-13T03:12:18;99517.09;;;20.08;62.94
82245;BME280;71849;50.096;14.458;2023-10-13T03:14:44;99529.50;;;20.11;63.04
82245;BME280;71849;50.096;14.458;2023-10-13T03:17:21;99525.97;;;20.05;63.76
82245;BME280;71849;50.096;14.458;2023-10-13T03:19:59;99530.09;;;20.08;62.93
82245;BME280;71849;50.096;14.458;2023-10-13T03:22:25;99537.19;;;19.85;63.88
82245;BME280;71849;50.096;14.458;2023-10-13T03:24:57;99531.06;;;19.93;63.34
82245;BME280;71849;50.096;14.458;2023-10-13T03:27:46;99536.84;;;19.97;63.25
82245;BME280;71849;50.096;14.458;2023-10-13T03:30:18;99537.59;;;20.02;63.18
82245;BME280;71849;50.096;14.458;2023-10-13T03:32:43;99545.47;;;19.85;63.61
82245;BME280;71849;50.096;14.458;2023-10-13T03:35:11;99549.84;;;19.91;63.36
82245;BME280;71849;50.096;14.458;2023-10-13T03:37:39;99541.09;;;19.84;63.76
82245;BME280;71849;50.096;14.458;2023-10-13T03:40:09;99550.19;;;19.51;64.97
82245;BME280;71849;50.096;14.458;2023-10-13T03:43:01;99534.22;;;19.82;63.81
82245;BME280;71849;50.096;14.458;2023-10-13T03:45:34;99532.66;;;19.99;63.74
82245;BME280;71849;50.096;14.458;2023-10-13T03:48:08;99523.63;;;19.89;63.68
82245;BME280;71849;50.096;14.458;2023-10-13T03:50:38;99520.03;;;19.88;63.88
82245;BME280;71849;50.096;14.458;2023-10-13T03:53:27;99528.97;;;19.80;64.21
82245;BME280;71849;50.096;14.458;2023-10-13T03:56:10;99519.13;;;19.98;63.67
82245;BME280;71849;50.096;14.458;2023-10-13T03:58:52;99525.28;;;19.90;63.48
82245;BME280;71849;50.096;14.458;2023-10-13T04:01:19;99529.72;;;19.52;65.09
82245;BME280;71849;50.096;14.458;2023-10-13T04:03:50;99528.34;;;19.54;64.63
82245;BME280;71849;50.096;14.458;2023-10-13T04:06:36;99532.75;;;19.55;64.71
82245;BME280;71849;50.096;14.458;2023-10-13T04:09:14;99536.28;;;19.61;64.20
82245;BME280;71849;50.096;14.458;2023-10-13T04:14:39;99533.63;;;19.51;64.45
82245;BME280;71849;50.096;14.458;2023-10-13T04:17:23;99523.16;;;19.43;64.75
82245;BME280;71849;50.096;14.458;2023-10-13T04:19:51;99522.25;;;19.57;64.17
82245;BME280;71849;50.096;14.458;2023-10-13T04:22:33;99523.88;;;19.58;64.01
82245;BME280;71849;50.096;14.458;2023-10-13T04:25:24;99526.81;;;19.28;65.35
82245;BME280;71849;50.096;14.458;2023-10-13T04:28:09;99531.53;;;19.28;65.36
82245;BME280;71849;50.096;14.458;2023-10-13T04:33:17;99517.38;;;18.95;66.38
82245;BME280;71849;50.096;14.458;2023-10-13T04:36:05;99525.25;;;18.63;67.76
82245;BME280;71849;50.096;14.458;2023-10-13T04:38:45;99512.59;;;18.57;68.10
82245;BME280;71849;50.096;14.458;2023-10-13T04:41:34;99510.94;;;18.56;68.18
82245;BME280;71849;50.096;14.458;2023-10-13T04:44:05;99499.94;;;18.41;68.76
82245;BME280;71849;50.096;14.458;2023-10-13T04:46:52;99506.41;;;17.86;70.74
82245;BME280;71849;50.096;14.458;2023-10-13T04:49:19;99499.38;;;18.44;68.53
82245;BME280;71849;50.096;14.458;2023-10-13T04:51:59;99490.94;;;18.89;67.17
82245;BME280;71849;50.096;14.458;2023-10-13T04:54:44;99507.22;;;18.86;66.82
82245;BME280;71849;50.096;14.458;2023-10-13T04:57:17;99498.28;;;19.04;66.43
82245;BME280;71849;50.096;14.458;2023-10-13T04:59:49;99497.72;;;18.53;68.17
82245;BME280;71849;50.096;14.458;2023-10-13T05:02:34;99492.28;;;18.13;70.02
82245;BME280;71849;50.096;14.458;2023-10-13T05:05:03;99492.31;;;18.18;69.70
82245;BME280;71849;50.096;14.458;2023-10-13T05:07:34;99510.44;;;18.39;69.09
82245;BME280;71849;50.096;14.458;2023-10-13T05:10:18;99509.66;;;18.03;70.26
82245;BME280;71849;50.096;14.458;2023-10-13T05:13:02;99510.50;;;18.03;70.35
82245;BME280;71849;50.096;14.458;2023-10-13T05:15:48;99517.66;;;18.10;70.42
82245;BME280;71849;50.096;14.458;2023-10-13T05:18:33;99516.75;;;18.39;69.01
82245;BME280;71849;50.096;14.458;2023-10-13T05:21:17;99524.50;;;18.27;69.40
82245;BME280;71849;50.096;14.458;2023-10-13T05:24:01;99525.06;;;18.29;69.95
82245;BME280;71849;50.096;14.458;2023-10-13T05:26:45;99526.75;;;18.94;67.67
82245;BME280;71849;50.096;14.458;2023-10-13T05:29:29;99531.78;;;18.82;68.19
82245;BME280;71849;50.096;14.458;2023-10-13T05:32:13;99519.97;;;19.64;64.97
82245;BME280;71849;50.096;14.458;2023-10-13T05:34:58;99522.97;;;19.68;64.76
82245;BME280;71849;50.096;14.458;2023-10-13T05:37:42;99527.16;;;19.66;65.22
82245;BME280;71849;50.096;14.458;2023-10-13T05:40:26;99525.66;;;19.78;64.45
82245;BME280;71849;50.096;14.458;2023-10-13T05:43:10;99524.59;;;19.74;64.97
82245;BME280;71849;50.096;14.458;2023-10-13T05:46:00;99521.69;;;19.89;64.32
82245;BME280;71849;50.096;14.458;2023-10-13T05:48:45;99528.03;;;19.90;63.79
82245;BME280;71849;50.096;14.458;2023-10-13T05:51:28;99522.97;;;20.02;64.13
82245;BME280;71849;50.096;14.458;2023-10-13T05:54:15;99513.41;;;19.89;64.34
82245;BME280;71849;50.096;14.458;2023-10-13T05:56:41;99512.13;;;19.77;65.17
82245;BME280;71849;50.096;14.458;2023-10-13T05:59:26;99514.91;;;19.77;65.42
82245;BME280;71849;50.096;14.458;2023-10-13T06:02:10;99519.13;;;19.98;64.93
82245;BME280;71849;50.096;14.458;2023-10-13T06:04:54;99518.81;;;19.32;66.88
82245;BME280;71849;50.096;14.458;2023-10-13T06:07:38;99524.47;;;19.55;66.60
82245;BME280;71849;50.096;14.458;2023-10-13T06:10:22;99523.50;;;19.70;66.01
82245;BME280;71849;50.096;14.458;2023-10-13T06:13:06;99535.97;;;19.68;66.16
82245;BME280;71849;50.096;14.458;2023-10-13T06:15:54;99536.13;;;19.81;65.54
82245;BME280;71849;50.096;14.458;2023-10-13T06:18:37;99529.75;;;20.14;64.19
82245;BME280;71849;50.096;14.458;2023-10-13T06:21:22;99534.13;;;20.15;63.75
82245;BME280;71849;50.096;14.458;2023-10-13T06:24:07;99531.75;;;20.09;64.17
82245;BME280;71849;50.096;14.458;2023-10-13T06:26:53;99536.50;;;20.32;63.67
82245;BME280;71849;50.096;14.458;2023-10-13T06:29:37;99532.72;;;20.70;61.78
82245;BME280;71849;50.096;14.458;2023-10-13T06:32:03;99553.69;;;20.53;62.30
82245;BME280;71849;50.096;14.458;2023-10-13T06:34:38;99543.09;;;20.84;61.44
82245;BME280;71849;50.096;14.458;2023-10-13T06:37:13;99549.13;;;20.67;61.74
82245;BME280;71849;50.096;14.458;2023-10-13T06:39:53;99546.94;;;20.88;61.19
82245;BME280;71849;50.096;14.458;2023-10-13T06:42:29;99547.88;;;20.78;61.22
82245;BME280;71849;50.096;14.458;2023-10-13T06:44:55;99542.56;;;20.82;61.51
82245;BME280;71849;50.096;14.458;2023-10-13T06:47:22;99551.34;;;21.07;61.20
82245;BME280;71849;50.096;14.458;2023-10-13T06:49:48;99550.13;;;20.95;61.63
82245;BME280;71849;50.096;14.458;2023-10-13T06:52:17;99549.41;;;20.65;64.54
82245;BME280;71849;50.096;14.458;2023-10-13T06:54:42;99555.03;;;20.55;64.64
82245;BME280;71849;50.096;14.458;2023-10-13T06:57:09;99544.53;;;20.00;64.63
82245;BME280;71849;50.096;14.458;2023-10-13T06:59:42;99568.59;;;20.57;64.08
82245;BME280;71849;50.096;14.458;2023-10-13T07:02:08;99562.03;;;20.95;61.18
82245;BME280;71849;50.096;14.458;2023-10-13T07:04:36;99553.22;;;20.93;61.17
82245;BME280;71849;50.096;14.458;2023-10-13T07:07:07;99556.38;;;21.05;60.66
82245;BME280;71849;50.096;14.458;2023-10-13T07:09:36;99554.13;;;21.07;60.67
82245;BME280;71849;50.096;14.458;2023-10-13T07:12:03;99562.19;;;21.09;60.93
82245;BME280;71849;50.096;14.458;2023-10-13T07:14:32;99561.06;;;21.05;60.66
82245;BME280;71849;50.096;14.458;2023-10-13T07:17:05;99561.44;;;20.98;60.92
82245;BME280;71849;50.096;14.458;2023-10-13T07:19:33;99565.47;;;21.11;60.65
82245;BME280;71849;50.096;14.458;2023-10-13T07:22:01;99557.53;;;21.23;59.87
82245;BME280;71849;50.096;14.458;2023-10-13T07:24:49;99555.09;;;20.74;61.53
82245;BME280;71849;50.096;14.458;2023-10-13T07:27:19;99554.13;;;21.07;61.10
82245;BME280;71849;50.096;14.458;2023-10-13T07:29:52;99557.31;;;21.38;59.94
82245;BME280;71849;50.096;14.458;2023-10-13T07:32:41;99544.59;;;21.18;60.11
82245;BME280;71849;50.096;14.458;2023-10-13T07:35:16;99549.09;;;21.33;59.67
82245;BME280;71849;50.096;14.458;2023-10-13T07:37:44;99554.31;;;21.35;59.97
82245;BME280;71849;50.096;14.458;2023-10-13T07:40:10;99548.56;;;21.50;59.44
82245;BME280;71849;50.096;14.458;2023-10-13T07:43:08;99542.56;;;21.61;58.80
82245;BME280;71849;50.096;14.458;2023-10-13T07:45:37;99547.31;;;21.61;59.13
82245;BME280;71849;50.096;14.458;2023-10-13T07:48:09;99537.00;;;21.61;58.79
82245;BME280;71849;50.096;14.458;2023-10-13T07:50:45;99543.56;;;21.52;58.96
82245;BME280;71849;50.096;14.458;2023-10-13T07:53:11;99541.16;;;21.64;59.17
82245;BME280;71849;50.096;14.458;2023-10-13T07:55:49;99536.94;;;21.85;58.60
82245;BME280;71849;50.096;14.458;2023-10-13T07:58:24;99535.00;;;21.67;58.96
82245;BME280;71849;50.096;14.458;2023-10-13T08:00:53;99528.69;;;21.80;58.75
82245;BME280;71849;50.096;14.458;2023-10-13T08:03:39;99529.41;;;22.04;58.12
82245;BME280;71849;50.096;14.458;2023-10-13T08:06:15;99533.72;;;21.97;58.10
82245;BME280;71849;50.096;14.458;2023-10-13T08:08:41;99529.47;;;21.67;59.47
82245;BME280;71849;50.096;14.458;2023-10-13T08:11:13;99522.31;;;21.98;58.33
82245;BME280;71849;50.096;14.458;2023-10-13T08:13:58;99527.91;;;21.61;59.46
82245;BME280;71849;50.096;14.458;2023-10-13T08:16:52;99515.09;;;21.46;59.87
82245;BME280;71849;50.096;14.458;2023-10-13T08:19:21;99523.78;;;22.09;58.12
82245;BME280;71849;50.096;14.458;2023-10-13T08:21:54;99520.34;;;22.31;57.61
82245;BME280;71849;50.096;14.458;2023-10-13T08:24:25;99526.50;;;22.42;56.92
82245;BME280;71849;50.096;14.458;2023-10-13T08:27:16;99523.47;;;22.11;57.72
82245;BME280;71849;50.096;14.458;2023-10-13T08:30:01;99518.81;;;22.52;57.07
82245;BME280;71849;50.096;14.458;2023-10-13T08:32:28;99514.28;;;22.43;56.89
82245;BME280;71849;50.096;14.458;2023-10-13T08:34:58;99515.75;;;22.81;55.95
82245;BME280;71849;50.096;14.458;2023-10-13T08:37:25;99512.97;;;22.81;56.14
82245;BME280;71849;50.096;14.458;2023-10-13T08:39:58;99512.03;;;22.58;57.02
82245;BME280;71849;50.096;14.458;2023-10-13T08:42:44;99508.66;;;22.61;56.88
82245;BME280;71849;50.096;14.458;2023-10-13T08:47:59;99505.84;;;22.48;57.54
82245;BME280;71849;50.096;14.458;2023-10-13T08:50:39;99501.94;;;22.35;57.51
82245;BME280;71849;50.096;14.458;2023-10-13T08:53:25;99499.72;;;22.92;55.94
82245;BME280;71849;50.096;14.458;2023-10-13T08:56:11;99502.53;;;23.14;55.24
82245;BME280;71849;50.096;14.458;2023-10-13T08:58:47;99504.91;;;23.07;55.40
82245;BME280;71849;50.096;14.458;2023-10-13T09:01:35;99503.19;;;22.43;57.76
82245;BME280;71849;50.096;14.458;2023-10-13T09:04:17;99507.28;;;22.59;56.76
82245;BME280;71849;50.096;14.458;2023-10-13T09:06:50;99514.09;;;22.80;56.66
82245;BME280;71849;50.096;14.458;2023-10-13T09:09:51;99501.69;;;23.27;54.96
82245;BME280;71849;50.096;14.458;2023-10-13T09:12:28;99504.44;;;22.77;56.46
82245;BME280;71849;50.096;14.458;2023-10-13T09:15:03;99502.38;;;23.46;54.62
82245;BME280;71849;50.096;14.458;2023-10-13T09:17:50;99489.19;;;23.38;54.81
82245;BME280;71849;50.096;14.458;2023-10-13T09:20:16;99488.31;;;23.65;54.05
82245;BME280;71849;50.096;14.458;2023-10-13T09:22:52;99491.69;;;23.84;53.54
82245;BME280;71849;50.096;14.458;2023-10-13T09:25:31;99485.88;;;23.94;52.98
82245;BME280;71849;50.096;14.458;2023-10-13T09:28:00;99498.88;;;23.63;53.96
82245;BME280;71849;50.096;14.458;2023-10-13T09:30:28;99492.97;;;24.31;51.81
82245;BME280;71849;50.096;14.458;2023-10-13T09:33:03;99490.41;;;24.43;51.84
82245;BME280;71849;50.096;14.458;2023-10-13T09:35:43;99493.69;;;24.45;51.39
82245;BME280;71849;50.096;14.458;2023-10-13T09:38:14;99486.66;;;24.47;51.35
82245;BME280;71849;50.096;14.458;2023-10-13T09:40:42;99485.72;;;24.21;52.52
82245;BME280;71849;50.096;14.458;2023-10-13T09:43:16;99485.91;;;24.73;51.24
82245;BME280;71849;50.096;14.458;2023-10-13T09:45:45;99485.69;;;24.52;51.40
82245;BME280;71849;50.096;14.458;2023-10-13T09:48:33;99483.50;;;24.10;52.67
82245;BME280;71849;50.096;14.458;2023-10-13T09:51:03;99482.13;;;24.60;51.39
82245;BME280;71849;50.096;14.458;2023-10-13T09:53:35;99470.19;;;24.68;51.00
82245;BME280;71849;50.096;14.458;2023-10-13T09:56:14;99475.16;;;24.10;51.53
82245;BME280;71849;50.096;14.458;2023-10-13T09:58:52;99471.78;;;24.52;51.13
82245;BME280;71849;50.096;14.458;2023-10-13T10:01:22;99463.13;;;23.92;52.62
82245;BME280;71849;50.096;14.458;2023-10-13T10:04:10;99470.13;;;24.51;51.16
82245;BME280;71849;50.096;14.458;2023-10-13T10:06:39;99459.81;;;24.52;51.21
82245;BME280;71849;50.096;14.458;2023-10-13T10:09:09;99467.16;;;24.47;51.02
82245;BME280;71849;50.096;14.458;2023-10-13T10:17:55;99451.25;;;24.87;49.96
82245;BME280;71849;50.096;14.458;2023-10-13T10:20:31;99451.78;;;24.89;49.77
82245;BME280;71849;50.096;14.458;2023-10-13T10:23:10;99451.50;;;24.60;50.86
82245;BME280;71849;50.096;14.458;2023-10-13T10:25:47;99440.88;;;24.62;50.72
82245;BME280;71849;50.096;14.458;2023-10-13T10:28:12;99440.28;;;24.91;49.67
82245;BME280;71849;50.096;14.458;2023-10-13T10:30:42;99441.38;;;24.16;52.03
82245;BME280;71849;50.096;14.458;2023-10-13T10:33:09;99433.38;;;24.80;50.46
82245;BME280;71849;50.096;14.458;2023-10-13T10:35:42;99438.19;;;25.31;49.24
82245;BME280;71849;50.096;14.458;2023-10-13T10:38:17;99435.72;;;25.46;48.68
82245;BME280;71849;50.096;14.458;2023-10-13T10:43:38;99433.91;;;25.42;48.46
82245;BME280;71849;50.096;14.458;2023-10-13T10:46:14;99434.75;;;25.25;49.00
82245;BME280;71849;50.096;14.458;2023-10-13T10:48:41;99428.69;;;25.49;48.35
82245;BME280;71849;50.096;14.458;2023-10-13T10:51:14;99425.56;;;25.42;48.48
82245;BME280;71849;50.096;14.458;2023-10-13T10:53:45;99422.78;;;25.42;47.98
82245;BME280;71849;50.096;14.458;2023-10-13T10:56:13;99410.50;;;25.34;47.96
82245;BME280;71849;50.096;14.458;2023-10-13T10:58:55;99415.88;;;25.57;47.28
82245;BME280;71849;50.096;14.458;2023-10-13T11:01:25;99400.63;;;25.63;46.94
82245;BME280;71849;50.096;14.458;2023-10-13T11:04:00;99404.25;;;25.20;48.32
82245;BME280;71849;50.096;14.458;2023-10-13T11:06:45;99398.38;;;25.13;47.47
82245;BME280;71849;50.096;14.458;2023-10-13T11:09:11;99393.31;;;25.07;47.98
82245;BME280;71849;50.096;14.458;2023-10-13T11:11:55;99392.81;;;25.22;47.42
82245;BME280;71849;50.096;14.458;2023-10-13T11:14:23;99385.28;;;25.14;47.30
82245;BME280;71849;50.096;14.458;2023-10-13T11:16:50;99383.59;;;25.64;46.22
82245;BME280;71849;50.096;14.458;2023-10-13T11:19:22;99371.34;;;24.88;48.24
82245;BME280;71849;50.096;14.458;2023-10-13T11:22:21;99381.34;;;25.32;46.47
82245;BME280;71849;50.096;14.458;2023-10-13T11:25:07;99390.84;;;25.22;46.86
82245;BME280;71849;50.096;14.458;2023-10-13T11:27:37;99385.19;;;24.54;47.77
82245;BME280;71849;50.096;14.458;2023-10-13T11:30:15;99374.28;;;25.26;46.40
82245;BME280;71849;50.096;14.458;2023-10-13T11:33:07;99371.94;;;25.53;45.42
82245;BME280;71849;50.096;14.458;2023-10-13T11:35:38;99359.22;;;25.90;44.95
82245;BME280;71849;50.096;14.458;2023-10-13T11:43:38;99364.16;;;26.31;43.60
82245;BME280;71849;50.096;14.458;2023-10-13T11:46:21;99350.56;;;26.50;43.01
82245;BME280;71849;50.096;14.458;2023-10-13T11:49:10;99340.38;;;26.25;44.43
82245;BME280;71849;50.096;14.458;2023-10-13T11:51:48;99332.38;;;26.15;44.80
82245;BME280;71849;50.096;14.458;2023-10-13T11:54:18;99333.34;;;26.19;44.14
82245;BME280;71849;50.096;14.458;2023-10-13T11:56:50;99329.22;;;25.87;44.63
82245;BME280;71849;50.096;14.458;2023-10-13T11:59:15;99319.72;;;26.18;44.04
82245;BME280;71849;50.096;14.458;2023-10-13T12:01:46;99315.41;;;26.29;43.90
82245;BME280;71849;50.096;14.458;2023-10-13T12:04:31;99312.63;;;26.29;43.50
82245;BME280;71849;50.096;14.458;2023-10-13T12:07:05;99314.38;;;26.63;43.09
82245;BME280;71849;50.096;14.458;2023-10-13T12:09:41;99305.91;;;26.71;43.31
82245;BME280;71849;50.096;14.458;2023-10-13T12:12:17;99292.88;;;26.04;44.42
82245;BME280;71849;50.096;14.458;2023-10-13T12:14:42;99286.91;;;26.15;43.31
82245;BME280;71849;50.096;14.458;2023-10-13T12:17:21;99283.91;;;26.70;42.73
82245;BME280;71849;50.096;14.458;2023-10-13T12:19:54;99282.69;;;26.38;42.69
82245;BME280;71849;50.096;14.458;2023-10-13T12:22:20;99290.44;;;26.32;42.38
82245;BME280;71849;50.096;14.458;2023-10-13T12:25:05;99282.09;;;26.53;41.61
82245;BME280;71849;50.096;14.458;2023-10-13T12:27:43;99284.19;;;26.77;40.01
82245;BME280;71849;50.096;14.458;2023-10-13T12:30:13;99270.38;;;27.13;38.63
82245;BME280;71849;50.096;14.458;2023-10-13T12:32:42;99274.19;;;27.08;38.86
82245;BME280;71849;50.096;14.458;2023-10-13T12:35:19;99265.03;;;27.08;38.69
82245;BME280;71849;50.096;14.458;2023-10-13T12:38:21;99269.22;;;27.47;37.52
82245;BME280;71849;50.096;14.458;2023-10-13T12:41:18;99258.53;;;27.16;37.29
82245;BME280;71849;50.096;14.458;2023-10-13T12:44:17;99252.28;;;27.31;36.93
82245;BME280;71849;50.096;14.458;2023-10-13T12:47:02;99259.66;;;27.15;36.97
82245;BME280;71849;50.096;14.458;2023-10-13T12:49:46;99251.56;;;27.22;36.44
82245;BME280;71849;50.096;14.458;2023-10-13T12:52:23;99250.28;;;27.32;35.89
82245;BME280;71849;50.096;14.458;2023-10-13T12:54:57;99238.25;;;27.19;36.12
82245;BME280;71849;50.096;14.458;2023-10-13T12:57:27;99233.91;;;27.42;35.41
82245;BME280;71849;50.096;14.458;2023-10-13T12:59:53;99239.06;;;27.52;35.40
82245;BME280;71849;50.096;14.458;2023-10-13T13:02:24;99222.94;;;27.37;35.19
82245;BME280;71849;50.096;14.458;2023-10-13T13:04:54;99218.09;;;27.58;34.79
82245;BME280;71849;50.096;14.458;2023-10-13T13:07:23;99215.53;;;27.53;34.97
82245;BME280;71849;50.096;14.458;2023-10-13T13:09:54;99219.72;;;27.72;34.72
82245;BME280;71849;50.096;14.458;2023-10-13T13:12:24;99211.78;;;27.86;34.10
82245;BME280;71849;50.096;14.458;2023-10-13T13:14:50;99209.47;;;27.63;34.42
82245;BME280;71849;50.096;14.458;2023-10-13T13:17:20;99202.25;;;27.75;34.08
82245;BME280;71849;50.096;14.458;2023-10-13T13:19:45;99202.13;;;27.59;34.67
82245;BME280;71849;50.096;14.458;2023-10-13T13:22:11;99193.75;;;27.71;34.07
82245;BME280;71849;50.096;14.458;2023-10-13T13:24:43;99203.28;;;27.46;34.19
82245;BME280;71849;50.096;14.458;2023-10-13T13:27:13;99197.81;;;27.49;33.97
82245;BME280;71849;50.096;14.458;2023-10-13T13:29:43;99190.56;;;27.73;33.10
82245;BME280;71849;50.096;14.458;2023-10-13T13:32:19;99174.72;;;27.77;32.54
82245;BME280;71849;50.096;14.458;2023-10-13T13:35:11;99164.69;;;27.88;32.33
82245;BME280;71849;50.096;14.458;2023-10-13T13:37:42;99158.53;;;27.82;31.92
82245;BME280;71849;50.096;14.458;2023-10-13T13:40:10;99165.63;;;27.31;32.96
82245;BME280;71849;50.096;14.458;2023-10-13T13:42:41;99166.56;;;27.96;31.86
82245;BME280;71849;50.096;14.458;2023-10-13T13:45:15;99153.66;;;27.55;31.67
82245;BME280;71849;50.096;14.458;2023-10-13T13:47:52;99145.41;;;28.23;31.06
82245;BME280;71849;50.096;14.458;2023-10-13T13:50:28;99152.28;;;28.25;31.11
82245;BME280;71849;50.096;14.458;2023-10-13T13:52:55;99137.94;;;27.50;31.60